Time;durP1;ratioP1;P1;durP2;ratioP2;P2;SDS_P1;SDS_P2;PMS_P1;PMS_P2;Temp;Humidity;BMP_temperature;BMP_pressure;BME280_temperature;BME280_humidity;BME280_pressure;Samples;Min_cycle;Max_cycle;Signal;HPM_P1;HPM_P2
2023/04/02 00:01:54;;;;;;;0.70;0.70;;;10.60;92.60;;;;;;5034351;28;20025;-66
2023/04/02 00:04:21;;;;;;;0.82;0.60;;;10.60;92.60;;;;;;5034121;28;20505;-66
2023/04/02 00:07:29;;;;;;;0.47;0.47;;;10.60;92.30;;;;;;5034496;28;20032;-66
2023/04/02 00:09:56;;;;;;;2.30;0.70;;;10.60;92.20;;;;;;5034021;28;20025;-69
2023/04/02 00:12:22;;;;;;;0.63;0.60;;;10.60;92.10;;;;;;5034077;28;20112;-66
2023/04/02 00:14:52;;;;;;;0.73;0.50;;;10.60;92.10;;;;;;5034027;28;20164;-66
2023/04/02 00:17:19;;;;;;;0.63;0.40;;;10.60;92.20;;;;;;5033730;28;20064;-67
2023/04/02 00:20:01;;;;;;;0.70;0.60;;;10.60;91.90;;;;;;5034042;28;20073;-67
2023/04/02 00:22:28;;;;;;;;;;;10.70;92.00;;;;;;5034204;28;20022;-66
2023/04/02 00:24:55;;;;;;;0.70;0.47;;;10.70;91.70;;;;;;5033158;28;19905;-66
2023/04/02 00:27:22;;;;;;;0.50;0.50;;;10.70;91.70;;;;;;5033720;28;20467;-67
2023/04/02 00:29:55;;;;;;;0.50;0.38;;;10.60;91.50;;;;;;5033749;28;20029;-67
2023/04/02 00:32:31;;;;;;;0.90;0.60;;;10.70;91.60;;;;;;5032061;28;20108;-67
2023/04/02 00:34:58;;;;;;;1.27;0.70;;;10.70;91.40;;;;;;5032252;28;20029;-74
2023/04/02 00:37:27;;;;;;;0.60;0.60;;;10.60;91.50;;;;;;5033792;28;20033;-66
2023/04/02 00:40:15;;;;;;;1.50;0.60;;;10.70;91.60;;;;;;5033573;28;20029;-67
2023/04/02 00:42:42;;;;;;;0.93;0.40;;;10.70;91.80;;;;;;5033811;28;20057;-67
2023/04/02 00:45:31;;;;;;;2.08;0.60;;;10.70;91.90;;;;;;5033233;28;20095;-67
2023/04/02 00:47:59;;;;;;;0.77;0.45;;;10.60;92.30;;;;;;5033477;28;20029;-67
2023/04/02 00:50:38;;;;;;;1.45;0.55;;;10.60;92.40;;;;;;5033128;28;20026;-67
2023/04/02 00:53:22;;;;;;;0.38;0.38;;;10.60;92.60;;;;;;5032788;28;20021;-67
2023/04/02 00:55:48;;;;;;;0.68;0.30;;;10.60;92.50;;;;;;5033461;28;20030;-67
2023/04/02 00:58:35;;;;;;;0.38;0.35;;;10.60;92.60;;;;;;5031575;28;20037;-67
2023/04/02 01:01:01;;;;;;;1.10;0.60;;;10.60;92.80;;;;;;5032440;28;20072;-67
2023/04/02 01:03:34;;;;;;;0.60;0.55;;;10.50;92.90;;;;;;5033232;28;20053;-67
2023/04/02 01:06:15;;;;;;;0.68;0.40;;;10.50;93.20;;;;;;5032732;28;20021;-69
2023/04/02 01:08:53;;;;;;;0.40;0.40;;;10.50;93.10;;;;;;5032820;28;20108;-67
2023/04/02 01:11:39;;;;;;;0.50;0.45;;;10.50;93.20;;;;;;5032544;28;20037;-67
2023/04/02 01:14:13;;;;;;;0.60;0.50;;;10.50;93.30;;;;;;5028205;28;20041;-67
2023/04/02 01:16:59;;;;;;;0.82;0.60;;;10.50;93.10;;;;;;5050647;28;20031;-67
2023/04/02 01:20:06;;;;;;;0.40;0.40;;;10.40;93.20;;;;;;5052546;28;20037;-67
2023/04/02 01:23:01;;;;;;;1.10;0.52;;;10.40;93.40;;;;;;5052723;28;20029;-66
2023/04/02 01:25:42;;;;;;;0.40;0.40;;;10.40;93.40;;;;;;5052305;28;20103;-67
2023/04/02 01:28:24;;;;;;;0.40;0.40;;;10.40;93.60;;;;;;5052153;28;20028;-67
2023/04/02 01:30:56;;;;;;;2.38;0.30;;;10.30;93.90;;;;;;5052440;28;20381;-67
2023/04/02 01:33:24;;;;;;;0.60;0.50;;;10.30;93.90;;;;;;5053779;28;20025;-67
2023/04/02 01:36:09;;;;;;;0.50;0.32;;;10.30;94.00;;;;;;5054780;28;20030;-67
2023/04/02 01:38:52;;;;;;;0.50;0.40;;;10.30;94.10;;;;;;5053416;28;20029;-67
2023/04/02 01:41:50;;;;;;;0.40;0.40;;;10.20;94.20;;;;;;5052132;28;20033;-67
2023/04/02 01:44:26;;;;;;;0.52;0.52;;;10.20;94.40;;;;;;5050517;28;20132;-67
2023/04/02 01:46:51;;;;;;;0.70;0.50;;;10.20;94.40;;;;;;5052651;28;20021;-67
2023/04/02 01:49:20;;;;;;;0.63;0.40;;;10.20;94.50;;;;;;5052270;28;20093;-66
2023/04/02 01:51:51;;;;;;;0.80;0.50;;;10.20;94.50;;;;;;5052559;28;20030;-66
2023/04/02 01:54:19;;;;;;;0.88;0.60;;;10.20;94.60;;;;;;5052174;28;20074;-67
2023/04/02 01:56:46;;;;;;;0.57;0.38;;;10.20;94.80;;;;;;5052454;28;20072;-66
2023/04/02 01:59:13;;;;;;;2.70;0.50;;;10.20;95.00;;;;;;5051908;28;20146;-66
2023/04/02 02:01:47;;;;;;;0.50;0.50;;;10.20;95.10;;;;;;5052114;28;20570;-67
2023/04/02 02:04:15;;;;;;;0.75;0.60;;;10.10;95.20;;;;;;5051898;28;20457;-67
2023/04/02 02:06:42;;;;;;;0.40;0.40;;;10.10;95.30;;;;;;5052017;28;20032;-67
2023/04/02 02:09:15;;;;;;;1.08;0.65;;;10.10;95.40;;;;;;5050693;28;20375;-67
2023/04/02 02:11:40;;;;;;;1.25;0.70;;;10.10;95.70;;;;;;5052423;28;20040;-67
2023/04/02 02:14:32;;;;;;;0.73;0.40;;;10.10;95.60;;;;;;5051640;28;20462;-67
2023/04/02 02:17:01;;;;;;;3.10;0.55;;;10.10;95.70;;;;;;5050317;28;20067;-67
2023/04/02 02:19:37;;;;;;;0.90;0.57;;;10.10;95.70;;;;;;5051881;28;20032;-66
2023/04/02 02:22:12;;;;;;;1.38;0.50;;;10.10;95.70;;;;;;5052649;28;20025;-67
2023/04/02 02:24:38;;;;;;;1.02;0.50;;;10.10;95.80;;;;;;5052263;28;20029;-67
2023/04/02 02:27:13;;;;;;;0.80;0.60;;;10.10;95.70;;;;;;5052244;28;20032;-67
2023/04/02 02:29:40;;;;;;;0.95;0.60;;;10.10;95.70;;;;;;5052287;28;20037;-67
2023/04/02 02:32:09;;;;;;;0.88;0.60;;;10.10;95.80;;;;;;5051468;28;20355;-70
2023/04/02 02:34:44;;;;;;;0.93;0.70;;;10.10;95.80;;;;;;5052057;28;20025;-66
2023/04/02 02:37:27;;;;;;;0.95;0.45;;;10.10;95.80;;;;;;5051731;28;20025;-66
2023/04/02 02:39:55;;;;;;;1.23;0.60;;;10.10;95.80;;;;;;5052114;28;20040;-66
2023/04/02 02:42:34;;;;;;;1.10;0.77;;;10.10;95.90;;;;;;5051271;28;20025;-66
2023/04/02 02:45:03;;;;;;;0.73;0.60;;;10.10;96.00;;;;;;5051569;28;20068;-66
2023/04/02 02:47:33;;;;;;;0.90;0.40;;;10.10;96.10;;;;;;5051839;28;20025;-66
2023/04/02 02:50:02;;;;;;;1.88;0.50;;;10.10;96.00;;;;;;5055179;28;20029;-66
2023/04/02 02:52:31;;;;;;;0.43;0.40;;;10.10;95.90;;;;;;5055103;28;20230;-66
2023/04/02 02:55:10;;;;;;;0.73;0.52;;;10.10;96.00;;;;;;5055144;28;20024;-67
2023/04/02 02:57:41;;;;;;;0.75;0.50;;;10.10;96.30;;;;;;5055390;28;20465;-66
2023/04/02 03:00:10;;;;;;;1.05;0.40;;;10.10;96.20;;;;;;5055397;28;20025;-67
2023/04/02 03:02:40;;;;;;;0.82;0.47;;;10.10;96.30;;;;;;5055300;28;20029;-67
2023/04/02 03:05:07;;;;;;;0.70;0.40;;;10.10;96.30;;;;;;5055353;28;20057;-67
2023/04/02 03:07:33;;;;;;;2.42;0.50;;;10.00;96.60;;;;;;5055147;28;20384;-67
2023/04/02 03:10:04;;;;;;;0.40;0.40;;;10.00;96.70;;;;;;5054954;28;20500;-67
2023/04/02 03:12:59;;;;;;;0.63;0.40;;;10.00;96.90;;;;;;5054786;28;20113;-67
2023/04/02 03:15:39;;;;;;;2.38;0.60;;;10.00;97.00;;;;;;5054772;28;20025;-68
2023/04/02 03:18:32;;;;;;;0.47;0.40;;;10.00;97.10;;;;;;5054666;28;20419;-67
2023/04/02 03:21:09;;;;;;;0.50;0.40;;;10.00;97.10;;;;;;5055036;28;20033;-67
2023/04/02 03:23:53;;;;;;;0.40;0.40;;;9.90;97.30;;;;;;5054545;28;20028;-67
2023/04/02 03:26:18;;;;;;;0.60;0.50;;;9.90;97.50;;;;;;5054597;28;20029;-66
2023/04/02 03:28:56;;;;;;;1.48;0.50;;;9.90;97.70;;;;;;5054490;28;20036;-67
2023/04/02 03:31:25;;;;;;;1.27;0.50;;;9.90;97.80;;;;;;5054491;28;20052;-67
2023/04/02 03:33:55;;;;;;;2.25;0.50;;;9.90;98.00;;;;;;5054672;28;20021;-67
2023/04/02 03:36:29;;;;;;;0.50;0.50;;;9.90;98.20;;;;;;5053968;28;20036;-67
2023/04/02 03:39:04;;;;;;;1.83;0.55;;;9.90;98.30;;;;;;5054558;28;20374;-67
2023/04/02 03:42:00;;;;;;;0.85;0.50;;;9.90;98.40;;;;;;5054261;28;20029;-67
2023/04/02 03:44:46;;;;;;;0.88;0.40;;;9.90;98.40;;;;;;5050969;28;20080;-67
2023/04/02 03:47:18;;;;;;;1.48;0.40;;;9.90;98.70;;;;;;5054402;28;20143;-67
2023/04/02 03:49:52;;;;;;;0.45;0.45;;;9.90;98.90;;;;;;5054250;28;20029;-66
2023/04/02 03:52:24;;;;;;;1.15;0.50;;;9.90;99.10;;;;;;5054063;28;20075;-66
2023/04/02 03:54:50;;;;;;;1.65;0.50;;;9.90;99.30;;;;;;5054400;28;20021;-66
2023/04/02 03:57:47;;;;;;;0.75;0.50;;;9.90;99.50;;;;;;5053885;28;20051;-66
2023/04/02 04:00:21;;;;;;;0.50;0.50;;;9.90;99.60;;;;;;5037704;28;20465;-71
2023/04/02 04:03:10;;;;;;;2.20;0.63;;;9.80;99.70;;;;;;5054458;28;20021;-67
2023/04/02 04:05:43;;;;;;;0.90;0.60;;;9.90;99.70;;;;;;5053805;28;20413;-66
2023/04/02 04:08:19;;;;;;;1.98;0.57;;;9.80;99.70;;;;;;5054122;28;20338;-67
2023/04/02 04:10:49;;;;;;;2.30;0.70;;;9.90;99.80;;;;;;5054156;28;20087;-66
2023/04/02 04:13:19;;;;;;;1.08;0.65;;;9.90;99.90;;;;;;5053691;28;20478;-66
2023/04/02 04:15:44;;;;;;;1.15;0.68;;;9.90;99.90;;;;;;5053646;28;20087;-67
2023/04/02 04:18:10;;;;;;;0.98;0.68;;;9.90;99.90;;;;;;5053459;28;20068;-68
2023/04/02 04:20:56;;;;;;;1.63;0.80;;;9.90;99.90;;;;;;5053452;28;20021;-66
2023/04/02 04:23:31;;;;;;;0.50;0.50;;;9.90;99.90;;;;;;5053725;28;20029;-67
2023/04/02 04:26:12;;;;;;;2.30;1.10;;;9.90;99.90;;;;;;5053826;28;20029;-67
2023/04/02 04:28:59;;;;;;;1.95;1.00;;;9.90;99.90;;;;;;5053401;28;20108;-67
2023/04/02 04:31:49;;;;;;;0.90;0.73;;;9.90;99.90;;;;;;5053231;28;20047;-67
2023/04/02 04:34:41;;;;;;;1.27;0.98;;;9.90;99.90;;;;;;5053216;28;20476;-71
2023/04/02 04:37:20;;;;;;;;;;;9.90;99.90;;;;;;5053999;28;20021;-67
2023/04/02 04:40:10;;;;;;;1.10;0.90;;;9.90;99.90;;;;;;5053420;28;19913;-67
2023/04/02 04:42:39;;;;;;;1.75;1.10;;;9.90;99.90;;;;;;5051818;28;20051;-67
2023/04/02 04:45:24;;;;;;;1.75;1.30;;;9.90;99.90;;;;;;5053545;28;20055;-67
2023/04/02 04:47:56;;;;;;;1.42;1.27;;;9.90;99.90;;;;;;5053155;28;20497;-67
2023/04/02 04:50:58;;;;;;;2.45;1.50;;;9.90;99.90;;;;;;5053053;28;20045;-67
2023/04/02 04:53:26;;;;;;;2.38;1.27;;;9.90;99.90;;;;;;5052826;28;20052;-67
2023/04/02 04:56:04;;;;;;;2.38;1.25;;;9.90;99.90;;;;;;5053441;28;20024;-67
2023/04/02 04:58:35;;;;;;;2.28;1.27;;;10.00;99.90;;;;;;5052335;28;20037;-66
2023/04/02 05:01:20;;;;;;;;;;;9.90;99.90;;;;;;5053853;28;20025;-67
2023/04/02 05:04:07;;;;;;;3.45;1.45;;;9.90;99.90;;;;;;5053323;28;19904;-67
2023/04/02 05:06:44;;;;;;;3.05;1.30;;;9.90;99.90;;;;;;5052643;28;20104;-68
2023/04/02 05:09:35;;;;;;;1.25;0.93;;;10.00;99.90;;;;;;5053028;28;20033;-67
2023/04/02 05:12:30;;;;;;;2.70;1.20;;;9.90;99.90;;;;;;5052472;28;20025;-68
2023/04/02 05:15:15;;;;;;;3.95;1.00;;;9.90;99.90;;;;;;5052947;28;20254;-67
2023/04/02 05:18:05;;;;;;;1.48;1.00;;;9.90;99.90;;;;;;5051879;28;20491;-67
2023/04/02 05:20:44;;;;;;;2.13;1.00;;;9.90;99.90;;;;;;5051101;28;20112;-67
2023/04/02 05:23:20;;;;;;;0.95;0.88;;;10.00;99.90;;;;;;5052570;28;20029;-66
2023/04/02 05:26:01;;;;;;;2.08;1.02;;;9.90;99.90;;;;;;5052868;28;20029;-67
2023/04/02 05:28:43;;;;;;;1.50;1.10;;;9.90;99.90;;;;;;5052311;28;20024;-67
2023/04/02 05:31:14;;;;;;;1.38;1.00;;;9.90;99.90;;;;;;5051506;28;20021;-66
2023/04/02 05:33:46;;;;;;;2.88;1.00;;;10.00;99.90;;;;;;5052267;28;20029;-66
2023/04/02 05:36:28;;;;;;;1.73;0.90;;;10.00;99.90;;;;;;5052747;28;20044;-66
2023/04/02 05:38:56;;;;;;;1.75;0.88;;;10.00;99.90;;;;;;5052518;28;20095;-66
2023/04/02 05:41:37;;;;;;;1.40;1.10;;;10.00;99.90;;;;;;5050595;28;20499;-66
2023/04/02 05:44:20;;;;;;;3.70;0.90;;;10.00;99.90;;;;;;5052442;28;20395;-66
2023/04/02 05:47:00;;;;;;;1.15;0.88;;;10.00;99.90;;;;;;5052396;28;20594;-66
2023/04/02 05:49:30;;;;;;;1.17;0.95;;;10.00;99.90;;;;;;5051471;28;20033;-66
2023/04/02 05:52:00;;;;;;;3.47;0.90;;;10.00;99.90;;;;;;5052254;28;20388;-67
2023/04/02 05:54:30;;;;;;;1.25;1.00;;;10.00;99.90;;;;;;5051913;28;20032;-67
2023/04/02 05:57:03;;;;;;;0.98;0.80;;;10.00;99.90;;;;;;5052470;28;20033;-66
2023/04/02 05:59:35;;;;;;;1.45;0.95;;;10.00;99.90;;;;;;5051867;28;20045;-67
2023/04/02 06:02:16;;;;;;;1.10;1.00;;;10.00;99.90;;;;;;5052378;28;20484;-67
2023/04/02 06:04:46;;;;;;;1.08;0.98;;;10.00;99.90;;;;;;5051753;28;20059;-67
2023/04/02 06:07:27;;;;;;;1.20;1.10;;;10.00;99.90;;;;;;5052243;28;20029;-67
2023/04/02 06:10:05;;;;;;;1.55;1.00;;;10.00;99.90;;;;;;5052467;28;20056;-67
2023/04/02 06:12:43;;;;;;;2.28;1.30;;;10.00;99.90;;;;;;5051896;28;20061;-67
2023/04/02 06:15:18;;;;;;;2.03;1.52;;;10.00;99.90;;;;;;5051977;28;20378;-66
2023/04/02 06:17:51;;;;;;;2.85;1.58;;;10.00;99.90;;;;;;5051571;28;20438;-66
2023/04/02 06:20:18;;;;;;;3.13;1.48;;;10.00;99.90;;;;;;5052276;28;20032;-67
2023/04/02 06:22:50;;;;;;;2.85;1.52;;;10.00;99.90;;;;;;5051660;28;20032;-67
2023/04/02 06:25:27;;;;;;;;;;;10.00;99.90;;;;;;5056566;28;20032;-67
2023/04/02 06:27:55;;;;;;;5.55;1.85;;;10.00;99.90;;;;;;5055958;28;19912;-68
2023/04/02 06:30:30;;;;;;;3.38;1.70;;;10.10;99.90;;;;;;5055629;28;20504;-66
2023/04/02 06:32:56;;;;;;;3.65;1.90;;;10.10;99.90;;;;;;5056005;28;20032;-66
2023/04/02 06:35:22;;;;;;;2.53;1.80;;;10.10;99.90;;;;;;5056025;28;20056;-66
2023/04/02 06:37:51;;;;;;;2.05;1.63;;;10.10;99.90;;;;;;5055245;28;20076;-66
2023/04/02 06:40:53;;;;;;;2.08;1.60;;;10.20;99.90;;;;;;5055701;28;20107;-66
2023/04/02 06:43:25;;;;;;;2.63;1.50;;;10.20;99.90;;;;;;5055583;28;20095;-66
2023/04/02 06:45:53;;;;;;;1.67;1.55;;;10.20;99.90;;;;;;5055693;28;20033;-67
2023/04/02 06:48:20;;;;;;;1.67;1.52;;;10.30;99.90;;;;;;5054388;28;20112;-67
2023/04/02 06:50:50;;;;;;;3.03;1.58;;;10.40;99.90;;;;;;5055051;28;20477;-67
2023/04/02 06:53:38;;;;;;;2.10;1.40;;;10.50;99.90;;;;;;5055549;28;20025;-66
2023/04/02 06:56:31;;;;;;;1.80;1.70;;;10.60;99.90;;;;;;5055420;28;20168;-67
2023/04/02 06:58:57;;;;;;;2.30;1.25;;;10.70;99.90;;;;;;5054896;28;20037;-66
2023/04/02 07:01:28;;;;;;;2.83;1.27;;;10.80;99.90;;;;;;5055298;28;20041;-68
2023/04/02 07:03:54;;;;;;;1.57;0.87;;;11.00;99.90;;;;;;5053933;28;20440;-68
2023/04/02 07:06:21;;;;;;;1.65;1.55;;;11.20;99.90;;;;;;5055213;28;20282;-67
2023/04/02 07:08:47;;;;;;;2.95;1.20;;;11.30;99.90;;;;;;5054914;28;20029;-67
2023/04/02 07:11:20;;;;;;;2.20;1.20;;;11.40;99.90;;;;;;5055159;28;20047;-67
2023/04/02 07:13:47;;;;;;;2.00;1.08;;;11.50;99.90;;;;;;5054684;28;20037;-68
2023/04/02 07:16:16;;;;;;;2.97;0.98;;;11.60;99.90;;;;;;5054783;28;20553;-67
2023/04/02 07:18:42;;;;;;;2.15;1.45;;;11.70;99.90;;;;;;5053450;28;20033;-67
2023/04/02 07:21:08;;;;;;;1.40;1.30;;;11.70;99.70;;;;;;5054987;28;20069;-67
2023/04/02 07:23:33;;;;;;;1.13;0.98;;;11.80;99.20;;;;;;5054487;28;20086;-67
2023/04/02 07:26:01;;;;;;;1.00;0.75;;;11.90;98.40;;;;;;5055076;28;20025;-66
2023/04/02 07:28:27;;;;;;;2.90;1.20;;;11.90;98.30;;;;;;5054767;28;20142;-66
2023/04/02 07:30:53;;;;;;;2.15;1.30;;;11.90;98.30;;;;;;5053495;28;20029;-67
2023/04/02 07:33:25;;;;;;;2.58;1.20;;;12.10;98.10;;;;;;5054659;28;20025;-67
2023/04/02 07:35:52;;;;;;;1.42;1.00;;;12.10;97.40;;;;;;5054179;28;20017;-67
2023/04/02 07:38:18;;;;;;;2.30;1.27;;;12.30;97.30;;;;;;5054858;28;20032;-66
2023/04/02 07:40:44;;;;;;;3.25;1.35;;;12.30;96.80;;;;;;5053933;28;20187;-67
2023/04/02 07:43:10;;;;;;;1.55;1.33;;;12.20;96.70;;;;;;5054313;28;20036;-67
2023/04/02 07:45:36;;;;;;;2.05;1.60;;;12.10;97.60;;;;;;5053666;28;20047;-66
2023/04/02 07:48:12;;;;;;;2.10;1.80;;;12.10;97.70;;;;;;5054468;28;20029;-67
2023/04/02 07:50:38;;;;;;;2.03;1.55;;;12.40;98.00;;;;;;5053770;28;20047;-66
2023/04/02 07:53:05;;;;;;;2.60;2.03;;;12.90;96.00;;;;;;5054392;28;20466;-67
2023/04/02 07:55:31;;;;;;;2.38;1.58;;;12.90;94.70;;;;;;5052609;28;20121;-68
2023/04/02 07:57:58;;;;;;;2.20;1.52;;;13.10;94.40;;;;;;5054154;28;20104;-68
2023/04/02 08:00:26;;;;;;;2.40;1.77;;;13.20;94.10;;;;;;5054171;28;20036;-67
2023/04/02 08:02:52;;;;;;;2.03;1.60;;;13.20;94.60;;;;;;5054173;28;20091;-67
2023/04/02 08:05:18;;;;;;;1.83;1.60;;;13.20;94.30;;;;;;5054482;28;20017;-67
2023/04/02 08:07:54;;;;;;;1.98;1.52;;;13.20;94.70;;;;;;5053968;28;20032;-67
2023/04/02 08:10:20;;;;;;;2.45;1.73;;;13.30;94.80;;;;;;5054099;28;20044;-67
2023/04/02 08:12:46;;;;;;;2.80;1.90;;;13.30;94.30;;;;;;5053580;28;20466;-67
2023/04/02 08:15:15;;;;;;;2.75;1.48;;;13.40;94.60;;;;;;5053955;28;20103;-67
2023/04/02 08:17:42;;;;;;;2.33;1.67;;;13.50;93.50;;;;;;5053477;28;20458;-67
2023/04/02 08:20:16;;;;;;;1.92;1.73;;;13.30;93.40;;;;;;5053870;28;20036;-68
2023/04/02 08:22:44;;;;;;;2.15;1.50;;;13.20;93.70;;;;;;5053456;28;20016;-68
2023/04/02 08:25:10;;;;;;;2.55;1.60;;;13.10;94.00;;;;;;5036191;28;20419;-68
2023/04/02 08:27:35;;;;;;;2.00;1.40;;;13.00;93.90;;;;;;5053287;28;20037;-66
2023/04/02 08:30:01;;;;;;;2.10;1.55;;;12.80;94.00;;;;;;5053406;28;20027;-68
2023/04/02 08:32:27;;;;;;;2.33;1.30;;;12.80;94.40;;;;;;5052378;28;20043;-68
2023/04/02 08:34:53;;;;;;;1.67;1.48;;;12.90;94.80;;;;;;5053299;28;20029;-67
2023/04/02 08:37:19;;;;;;;1.63;1.27;;;13.00;94.30;;;;;;5053571;28;20025;-67
2023/04/02 08:39:45;;;;;;;1.70;1.17;;;12.90;94.00;;;;;;5052062;28;20033;-67
2023/04/02 08:42:35;;;;;;;1.67;1.10;;;12.80;94.10;;;;;;5053704;28;20040;-67
2023/04/02 08:45:06;;;;;;;1.10;0.98;;;12.70;94.90;;;;;;5053113;28;20107;-68
2023/04/02 08:47:39;;;;;;;2.70;1.40;;;12.60;94.80;;;;;;5052714;28;20143;-66
2023/04/02 08:50:41;;;;;;;1.92;1.08;;;12.50;95.30;;;;;;5052958;28;20041;-67
2023/04/02 08:53:16;;;;;;;4.38;1.38;;;12.50;95.80;;;;;;5053301;28;20025;-67
2023/04/02 08:56:19;;;;;;;1.55;1.20;;;12.60;95.60;;;;;;5052620;28;20457;-66
2023/04/02 08:58:53;;;;;;;1.38;1.00;;;12.50;95.50;;;;;;5051050;28;20060;-68
2023/04/02 09:01:43;;;;;;;2.00;1.35;;;12.40;95.70;;;;;;5053055;28;20074;-67
2023/04/02 09:04:15;;;;;;;2.97;1.20;;;12.30;96.50;;;;;;5053022;28;20205;-66
2023/04/02 09:06:42;;;;;;;1.38;1.00;;;12.20;96.50;;;;;;5052689;28;20033;-67
2023/04/02 09:09:10;;;;;;;1.27;0.90;;;12.10;96.50;;;;;;5053029;28;20505;-66
2023/04/02 09:11:48;;;;;;;3.30;1.77;;;12.00;97.00;;;;;;5052687;28;20036;-68
2023/04/02 09:14:45;;;;;;;4.65;1.13;;;12.00;97.70;;;;;;5052578;28;20041;-67
2023/04/02 09:17:23;;;;;;;1.95;1.20;;;11.90;98.00;;;;;;5050671;28;20044;-66
2023/04/02 09:20:18;;;;;;;1.35;1.10;;;11.90;97.90;;;;;;5052175;28;20064;-67
2023/04/02 09:22:47;;;;;;;3.70;1.25;;;12.00;98.30;;;;;;5052429;28;20086;-67
2023/04/02 09:25:31;;;;;;;1.95;1.15;;;12.10;98.60;;;;;;5052275;28;20481;-67
2023/04/02 09:28:01;;;;;;;1.73;0.90;;;12.20;97.90;;;;;;5051062;28;20461;-67
2023/04/02 09:30:50;;;;;;;1.92;0.98;;;12.20;97.90;;;;;;5052701;28;20343;-67
2023/04/02 09:33:15;;;;;;;2.53;1.30;;;12.20;97.40;;;;;;5052724;28;20063;-67
2023/04/02 09:35:50;;;;;;;2.30;1.25;;;12.30;97.50;;;;;;5052284;28;20022;-67
2023/04/02 09:38:21;;;;;;;1.20;0.88;;;12.30;97.10;;;;;;5052320;28;20029;-65
2023/04/02 09:41:18;;;;;;;1.92;1.15;;;12.20;96.20;;;;;;5051763;28;20463;-67
2023/04/02 09:43:44;;;;;;;1.92;1.00;;;12.20;96.00;;;;;;5051930;28;20494;-67
2023/04/02 09:46:14;;;;;;;4.35;0.98;;;12.30;96.10;;;;;;5052546;28;20067;-67
2023/04/02 09:48:43;;;;;;;1.45;0.90;;;12.30;95.70;;;;;;5051968;28;20033;-68
2023/04/02 09:51:17;;;;;;;1.88;0.88;;;12.30;95.80;;;;;;5052392;28;20100;-67
2023/04/02 09:53:44;;;;;;;6.85;0.90;;;12.40;95.90;;;;;;5052041;28;20040;-68
2023/04/02 09:56:16;;;;;;;3.13;0.98;;;12.50;94.90;;;;;;5051259;28;20048;-67
2023/04/02 09:58:44;;;;;;;0.82;0.70;;;12.60;95.10;;;;;;5055058;28;20060;-68
2023/04/02 10:01:47;;;;;;;1.50;0.65;;;12.60;94.00;;;;;;5056641;28;20397;-67
2023/04/02 10:04:34;;;;;;;0.65;0.60;;;12.60;92.80;;;;;;5056319;28;20478;-67
2023/04/02 10:07:01;;;;;;;0.60;0.60;;;12.70;92.80;;;;;;5055971;28;20029;-67
2023/04/02 10:09:31;;;;;;;1.17;0.80;;;12.90;92.10;;;;;;5056519;28;20047;-67
2023/04/02 10:11:59;;;;;;;2.20;1.02;;;12.90;91.60;;;;;;5055835;28;20021;-67
2023/04/02 10:14:33;;;;;;;1.90;1.02;;;13.00;92.10;;;;;;5056189;28;20055;-67
2023/04/02 10:17:05;;;;;;;1.73;1.30;;;13.20;91.80;;;;;;5056167;28;20108;-67
2023/04/02 10:19:39;;;;;;;1.00;1.00;;;13.30;91.90;;;;;;5056252;28;20128;-67
2023/04/02 10:22:17;;;;;;;3.60;1.30;;;13.30;91.70;;;;;;5055699;28;20033;-68
2023/04/02 10:24:43;;;;;;;2.17;1.25;;;13.40;91.60;;;;;;5055670;28;20032;-68
2023/04/02 10:27:21;;;;;;;1.13;0.95;;;13.50;91.80;;;;;;5055965;28;20025;-67
2023/04/02 10:29:53;;;;;;;1.05;0.90;;;13.50;91.20;;;;;;5056131;28;20086;-68
2023/04/02 10:32:25;;;;;;;1.10;0.93;;;13.60;91.30;;;;;;5056247;28;20025;-67
2023/04/02 10:35:31;;;;;;;1.00;0.90;;;13.60;91.70;;;;;;5055588;28;20017;-67
2023/04/02 10:38:14;;;;;;;0.90;0.88;;;13.50;91.10;;;;;;5055517;28;20052;-67
2023/04/02 10:41:11;;;;;;;2.97;1.20;;;13.40;91.30;;;;;;5055867;28;20033;-67
2023/04/02 10:43:46;;;;;;;1.27;1.10;;;13.20;91.70;;;;;;5038008;28;20132;-67
2023/04/02 10:46:42;;;;;;;0.82;0.82;;;13.20;92.40;;;;;;5056142;28;20377;-67
2023/04/02 10:49:35;;;;;;;1.55;1.10;;;13.10;91.40;;;;;;5050351;28;20044;-67
2023/04/02 10:52:20;;;;;;;1.17;1.00;;;13.00;91.90;;;;;;5056450;28;20025;-67
2023/04/02 10:54:56;;;;;;;1.55;0.95;;;12.90;93.20;;;;;;5056691;28;20033;-68
2023/04/02 10:57:39;;;;;;;1.35;0.90;;;12.70;93.70;;;;;;5057019;28;20083;-68
2023/04/02 11:00:14;;;;;;;1.40;0.85;;;12.70;94.20;;;;;;5055221;28;20057;-67
2023/04/02 11:02:55;;;;;;;1.33;0.93;;;12.60;93.50;;;;;;5055706;28;20358;-67
2023/04/02 11:05:45;;;;;;;1.50;0.80;;;12.50;93.60;;;;;;5055782;28;20025;-67
2023/04/02 11:08:17;;;;;;;3.05;1.00;;;12.50;94.10;;;;;;5055432;28;20362;-67
2023/04/02 11:10:52;;;;;;;1.40;0.85;;;12.40;94.30;;;;;;5054801;28;20075;-67
2023/04/02 11:13:26;;;;;;;2.13;0.65;;;12.40;94.70;;;;;;5055343;28;20029;-67
2023/04/02 11:15:52;;;;;;;1.17;0.77;;;12.40;93.80;;;;;;5054911;28;20032;-67
2023/04/02 11:18:37;;;;;;;0.60;0.60;;;12.40;94.00;;;;;;5054674;28;20029;-67
2023/04/02 11:21:26;;;;;;;1.48;0.95;;;12.30;94.10;;;;;;5054122;28;20386;-67
2023/04/02 11:24:00;;;;;;;1.30;1.00;;;12.30;94.30;;;;;;5046679;28;20123;-66
2023/04/02 11:26:31;;;;;;;1.70;1.02;;;12.30;94.60;;;;;;5054837;28;20083;-68
2023/04/02 11:29:20;;;;;;;;;;;12.30;94.70;;;;;;5054951;28;20112;-66
2023/04/02 11:31:47;;;;;;;1.67;0.80;;;12.30;94.70;;;;;;5047692;28;19905;-70
2023/04/02 11:34:33;;;;;;;0.82;0.63;;;12.20;93.90;;;;;;5054855;28;20068;-66
2023/04/02 11:37:02;;;;;;;1.48;0.90;;;12.20;93.60;;;;;;5054613;28;20028;-67
2023/04/02 11:40:09;;;;;;;1.25;0.85;;;12.10;93.90;;;;;;5053390;28;20056;-67
2023/04/02 11:42:36;;;;;;;1.85;0.98;;;12.00;94.30;;;;;;5012624;28;20034;-67
2023/04/02 11:45:23;;;;;;;0.90;0.80;;;12.00;94.20;;;;;;5046861;28;20397;-67
2023/04/02 11:48:01;;;;;;;1.98;0.65;;;12.00;94.60;;;;;;5054270;28;20481;-66
2023/04/02 11:50:34;;;;;;;0.80;0.68;;;11.90;94.10;;;;;;5054613;28;20036;-66
2023/04/02 11:53:15;;;;;;;2.00;0.90;;;11.90;95.00;;;;;;5054199;28;20053;-67
2023/04/02 11:55:43;;;;;;;3.47;1.15;;;11.90;96.40;;;;;;5054352;28;20112;-67
2023/04/02 11:58:31;;;;;;;1.48;1.00;;;11.80;98.00;;;;;;5052587;28;20481;-66
2023/04/02 12:01:38;;;;;;;2.10;1.00;;;11.80;99.10;;;;;;5053952;28;20029;-67
2023/04/02 12:04:04;;;;;;;1.63;1.20;;;11.70;99.80;;;;;;5011940;28;20026;-67
2023/04/02 12:06:56;;;;;;;6.65;1.33;;;11.60;99.90;;;;;;5012243;28;20033;-67
2023/04/02 12:09:23;;;;;;;;;;;11.50;99.90;;;;;;5012556;28;20506;-68
2023/04/02 12:11:51;;;;;;;5.22;1.85;;;11.40;99.90;;;;;;5011728;28;19983;-67
2023/04/02 12:14:35;;;;;;;3.83;1.60;;;11.30;99.90;;;;;;5012034;28;20064;-67
2023/04/02 12:17:13;;;;;;;2.72;1.95;;;11.30;99.90;;;;;;5011614;28;20034;-67
2023/04/02 12:19:39;;;;;;;3.15;1.83;;;11.20;99.90;;;;;;5012123;28;20096;-66
2023/04/02 12:22:05;;;;;;;5.47;2.40;;;11.10;99.90;;;;;;5010556;28;20049;-67
2023/04/02 12:24:31;;;;;;;4.07;2.25;;;11.10;99.90;;;;;;5011706;28;20022;-66
2023/04/02 12:27:16;;;;;;;3.42;2.33;;;11.00;99.90;;;;;;5011478;28;20030;-67
2023/04/02 12:29:42;;;;;;;3.85;2.70;;;10.90;99.90;;;;;;5011832;28;20502;-66
2023/04/02 12:32:26;;;;;;;3.10;2.38;;;10.80;99.90;;;;;;5011337;28;20085;-67
2023/04/02 12:34:53;;;;;;;7.53;3.53;;;10.70;99.90;;;;;;5034109;28;20037;-69
2023/04/02 12:37:22;;;;;;;4.97;3.13;;;10.70;99.90;;;;;;5053784;28;20036;-67
2023/04/02 12:39:54;;;;;;;3.53;2.20;;;10.70;99.90;;;;;;5053566;28;20060;-67
2023/04/02 12:42:33;;;;;;;3.45;2.22;;;10.60;99.90;;;;;;5053656;28;20083;-66
2023/04/02 12:45:00;;;;;;;2.30;1.88;;;10.50;99.90;;;;;;5052856;28;20060;-67
2023/04/02 12:47:26;;;;;;;2.50;1.60;;;10.40;99.90;;;;;;5053449;28;20025;-66
2023/04/02 12:49:55;;;;;;;6.22;1.65;;;10.40;99.90;;;;;;5052982;28;20037;-68
2023/04/02 12:52:27;;;;;;;2.50;1.70;;;10.40;99.90;;;;;;5053340;28;20025;-67
2023/04/02 12:54:56;;;;;;;2.25;1.70;;;10.40;99.90;;;;;;5053102;28;20025;-67
2023/04/02 12:57:24;;;;;;;1.50;1.30;;;10.40;99.90;;;;;;5053254;28;20469;-67
2023/04/02 12:59:55;;;;;;;2.80;1.73;;;10.30;99.90;;;;;;5053106;28;20040;-66
2023/04/02 13:02:44;;;;;;;2.20;1.90;;;10.40;99.90;;;;;;5053420;28;20042;-67
2023/04/02 13:05:10;;;;;;;2.42;1.77;;;10.30;99.90;;;;;;5052524;28;20021;-66
2023/04/02 13:07:36;;;;;;;2.90;1.90;;;10.30;99.90;;;;;;5053483;28;20419;-66
2023/04/02 13:10:22;;;;;;;3.00;2.05;;;10.20;99.90;;;;;;5052416;28;20461;-67
2023/04/02 13:12:55;;;;;;;1.58;1.35;;;10.20;99.90;;;;;;5053430;28;20074;-66
2023/04/02 13:15:40;;;;;;;1.90;1.58;;;10.30;99.90;;;;;;5052897;28;20466;-67
2023/04/02 13:18:12;;;;;;;3.78;1.60;;;10.30;99.90;;;;;;5052477;28;20027;-66
2023/04/02 13:20:40;;;;;;;2.00;1.60;;;10.30;99.90;;;;;;5052935;28;20075;-66
2023/04/02 13:23:29;;;;;;;2.10;1.73;;;10.30;99.90;;;;;;5051406;28;20027;-66
2023/04/02 13:25:58;;;;;;;3.47;1.73;;;10.30;99.90;;;;;;5051123;28;20483;-67
2023/04/02 13:28:24;;;;;;;2.58;1.50;;;10.30;99.90;;;;;;5052732;28;20039;-66
2023/04/02 13:30:50;;;;;;;2.00;1.60;;;10.40;99.90;;;;;;5051531;28;20111;-66
2023/04/02 13:33:16;;;;;;;2.20;1.88;;;10.30;99.90;;;;;;5052175;28;20148;-66